sensor_id;sensor_type;location;lat;lon;timestamp;temperature;humidity
52787;DHT22;38661;53.152;5.846;2024-01-15T00:02:15;3.20;88.20
52787;DHT22;38661;53.152;5.846;2024-01-15T00:04:41;3.20;88.00
52787;DHT22;38661;53.152;5.846;2024-01-15T00:07:08;3.10;87.90
52787;DHT22;38661;53.152;5.846;2024-01-15T00:09:33;3.20;87.70
52787;DHT22;38661;53.152;5.846;2024-01-15T00:12:00;3.30;87.90
52787;DHT22;38661;53.152;5.846;2024-01-15T00:14:26;3.30;87.60
52787;DHT22;38661;53.152;5.846;2024-01-15T00:16:51;3.40;87.60
52787;DHT22;38661;53.152;5.846;2024-01-15T00:19:21;3.50;87.50
52787;DHT22;38661;53.152;5.846;2024-01-15T00:21:47;3.50;87.60
52787;DHT22;38661;53.152;5.846;2024-01-15T00:24:13;3.50;87.70
52787;DHT22;38661;53.152;5.846;2024-01-15T00:26:39;3.50;87.60
52787;DHT22;38661;53.152;5.846;2024-01-15T00:29:07;3.50;87.80
52787;DHT22;38661;53.152;5.846;2024-01-15T00:31:33;3.60;88.10
52787;DHT22;38661;53.152;5.846;2024-01-15T00:33:58;3.60;88.00
52787;DHT22;38661;53.152;5.846;2024-01-15T00:36:24;3.60;88.20
52787;DHT22;38661;53.152;5.846;2024-01-15T00:38:49;3.60;88.10
52787;DHT22;38661;53.152;5.846;2024-01-15T00:41:15;3.60;88.20
52787;DHT22;38661;53.152;5.846;2024-01-15T00:43:41;3.60;88.20
52787;DHT22;38661;53.152;5.846;2024-01-15T00:46:07;3.70;88.00
52787;DHT22;38661;53.152;5.846;2024-01-15T00:48:33;3.70;88.20
52787;DHT22;38661;53.152;5.846;2024-01-15T00:50:59;3.80;88.40
52787;DHT22;38661;53.152;5.846;2024-01-15T00:53:25;3.60;88.60
52787;DHT22;38661;53.152;5.846;2024-01-15T00:55:51;3.30;89.00
52787;DHT22;38661;53.152;5.846;2024-01-15T00:58:17;3.00;89.60
52787;DHT22;38661;53.152;5.846;2024-01-15T01:00:42;2.90;90.40
52787;DHT22;38661;53.152;5.846;2024-01-15T01:03:08;2.80;90.90
52787;DHT22;38661;53.152;5.846;2024-01-15T01:05:34;2.80;91.30
52787;DHT22;38661;53.152;5.846;2024-01-15T01:08:00;2.70;91.60
52787;DHT22;38661;53.152;5.846;2024-01-15T01:10:26;2.60;91.80
52787;DHT22;38661;53.152;5.846;2024-01-15T01:12:52;2.60;92.30
52787;DHT22;38661;53.152;5.846;2024-01-15T01:15:18;2.60;92.50
52787;DHT22;38661;53.152;5.846;2024-01-15T01:17:44;2.70;92.40
52787;DHT22;38661;53.152;5.846;2024-01-15T01:20:09;2.60;92.40
52787;DHT22;38661;53.152;5.846;2024-01-15T01:22:36;2.70;92.20
52787;DHT22;38661;53.152;5.846;2024-01-15T01:25:02;2.80;92.10
52787;DHT22;38661;53.152;5.846;2024-01-15T01:27:28;2.90;92.00
52787;DHT22;38661;53.152;5.846;2024-01-15T01:29:53;2.90;91.90
52787;DHT22;38661;53.152;5.846;2024-01-15T01:32:19;3.00;91.70
52787;DHT22;38661;53.152;5.846;2024-01-15T01:34:45;3.00;91.80
52787;DHT22;38661;53.152;5.846;2024-01-15T01:37:11;3.00;91.80
52787;DHT22;38661;53.152;5.846;2024-01-15T01:39:41;3.00;91.90
52787;DHT22;38661;53.152;5.846;2024-01-15T01:42:07;3.00;92.00
52787;DHT22;38661;53.152;5.846;2024-01-15T01:44:32;3.00;91.90
52787;DHT22;38661;53.152;5.846;2024-01-15T01:47:01;3.00;92.10
52787;DHT22;38661;53.152;5.846;2024-01-15T01:49:28;2.90;92.00
52787;DHT22;38661;53.152;5.846;2024-01-15T01:51:58;3.00;91.80
52787;DHT22;38661;53.152;5.846;2024-01-15T01:54:27;3.00;91.60
52787;DHT22;38661;53.152;5.846;2024-01-15T01:56:54;3.00;91.50
52787;DHT22;38661;53.152;5.846;2024-01-15T01:59:21;3.00;91.50
52787;DHT22;38661;53.152;5.846;2024-01-15T02:01:49;2.90;91.60
52787;DHT22;38661;53.152;5.846;2024-01-15T02:04:15;2.90;91.60
52787;DHT22;38661;53.152;5.846;2024-01-15T02:06:41;3.00;91.60
52787;DHT22;38661;53.152;5.846;2024-01-15T02:09:08;3.00;91.50
52787;DHT22;38661;53.152;5.846;2024-01-15T02:11:34;3.00;91.60
52787;DHT22;38661;53.152;5.846;2024-01-15T02:14:01;3.10;91.60
52787;DHT22;38661;53.152;5.846;2024-01-15T02:16:26;3.10;91.50
52787;DHT22;38661;53.152;5.846;2024-01-15T02:18:52;3.10;91.60
52787;DHT22;38661;53.152;5.846;2024-01-15T02:21:18;3.10;91.40
52787;DHT22;38661;53.152;5.846;2024-01-15T02:23:43;3.10;91.60
52787;DHT22;38661;53.152;5.846;2024-01-15T02:26:09;3.10;91.70
52787;DHT22;38661;53.152;5.846;2024-01-15T02:28:35;3.10;91.60
52787;DHT22;38661;53.152;5.846;2024-01-15T02:31:00;3.00;91.80
52787;DHT22;38661;53.152;5.846;2024-01-15T02:33:26;3.00;91.70
52787;DHT22;38661;53.152;5.846;2024-01-15T02:35:52;3.00;91.30
52787;DHT22;38661;53.152;5.846;2024-01-15T02:38:18;3.00;91.40
52787;DHT22;38661;53.152;5.846;2024-01-15T02:40:44;2.90;91.50
52787;DHT22;38661;53.152;5.846;2024-01-15T02:43:10;3.00;91.60
52787;DHT22;38661;53.152;5.846;2024-01-15T02:45:36;3.10;91.50
52787;DHT22;38661;53.152;5.846;2024-01-15T02:48:01;3.10;91.00
52787;DHT22;38661;53.152;5.846;2024-01-15T02:50:27;3.10;90.70
52787;DHT22;38661;53.152;5.846;2024-01-15T02:52:53;3.00;90.40
52787;DHT22;38661;53.152;5.846;2024-01-15T02:55:19;2.90;90.20
52787;DHT22;38661;53.152;5.846;2024-01-15T02:57:45;2.80;90.10
52787;DHT22;38661;53.152;5.846;2024-01-15T03:00:11;2.80;90.20
52787;DHT22;38661;53.152;5.846;2024-01-15T03:02:40;2.80;90.10
52787;DHT22;38661;53.152;5.846;2024-01-15T03:05:07;2.90;90.00
52787;DHT22;38661;53.152;5.846;2024-01-15T03:07:33;2.90;90.20
52787;DHT22;38661;53.152;5.846;2024-01-15T03:09:59;2.90;90.10
52787;DHT22;38661;53.152;5.846;2024-01-15T03:12:25;3.00;90.20
52787;DHT22;38661;53.152;5.846;2024-01-15T03:14:50;3.10;90.30
52787;DHT22;38661;53.152;5.846;2024-01-15T03:17:16;3.00;90.30
52787;DHT22;38661;53.152;5.846;2024-01-15T03:19:42;3.00;90.30
52787;DHT22;38661;53.152;5.846;2024-01-15T03:22:08;3.00;90.40
52787;DHT22;38661;53.152;5.846;2024-01-15T03:24:34;3.00;90.40
52787;DHT22;38661;53.152;5.846;2024-01-15T03:27:01;3.10;90.00
52787;DHT22;38661;53.152;5.846;2024-01-15T03:29:26;3.00;90.00
52787;DHT22;38661;53.152;5.846;2024-01-15T03:31:52;3.00;89.90
52787;DHT22;38661;53.152;5.846;2024-01-15T03:34:18;2.90;89.80
52787;DHT22;38661;53.152;5.846;2024-01-15T03:36:44;2.90;89.80
52787;DHT22;38661;53.152;5.846;2024-01-15T03:39:10;2.90;89.70
52787;DHT22;38661;53.152;5.846;2024-01-15T03:41:35;2.90;89.30
52787;DHT22;38661;53.152;5.846;2024-01-15T03:44:01;3.00;89.30
52787;DHT22;38661;53.152;5.846;2024-01-15T03:46:27;2.90;89.40
52787;DHT22;38661;53.152;5.846;2024-01-15T03:48:53;2.90;89.50
52787;DHT22;38661;53.152;5.846;2024-01-15T03:51:19;2.90;89.60
52787;DHT22;38661;53.152;5.846;2024-01-15T03:53:45;2.80;89.80
52787;DHT22;38661;53.152;5.846;2024-01-15T03:56:11;2.80;89.90
52787;DHT22;38661;53.152;5.846;2024-01-15T03:58:36;2.80;89.80
52787;DHT22;38661;53.152;5.846;2024-01-15T04:01:02;2.70;89.80
52787;DHT22;38661;53.152;5.846;2024-01-15T04:03:28;2.70;89.90
52787;DHT22;38661;53.152;5.846;2024-01-15T04:05:53;2.70;89.70
52787;DHT22;38661;53.152;5.846;2024-01-15T04:08:19;2.70;89.50
52787;DHT22;38661;53.152;5.846;2024-01-15T04:10:45;2.60;89.30
52787;DHT22;38661;53.152;5.846;2024-01-15T04:13:10;2.60;89.20
52787;DHT22;38661;53.152;5.846;2024-01-15T04:15:36;2.60;89.10
52787;DHT22;38661;53.152;5.846;2024-01-15T04:18:03;2.70;88.90
52787;DHT22;38661;53.152;5.846;2024-01-15T04:20:29;2.60;89.10
52787;DHT22;38661;53.152;5.846;2024-01-15T04:22:55;2.60;89.20
52787;DHT22;38661;53.152;5.846;2024-01-15T04:25:20;2.70;89.30
52787;DHT22;38661;53.152;5.846;2024-01-15T04:27:46;2.60;89.50
52787;DHT22;38661;53.152;5.846;2024-01-15T04:30:12;2.60;89.80
52787;DHT22;38661;53.152;5.846;2024-01-15T04:32:38;2.50;89.70
52787;DHT22;38661;53.152;5.846;2024-01-15T04:35:04;2.50;90.10
52787;DHT22;38661;53.152;5.846;2024-01-15T04:37:29;2.50;90.30
52787;DHT22;38661;53.152;5.846;2024-01-15T04:39:55;2.50;90.40
52787;DHT22;38661;53.152;5.846;2024-01-15T04:42:23;2.40;90.60
52787;DHT22;38661;53.152;5.846;2024-01-15T04:44:49;2.40;90.70
52787;DHT22;38661;53.152;5.846;2024-01-15T04:47:14;2.40;91.00
52787;DHT22;38661;53.152;5.846;2024-01-15T04:49:40;2.30;91.20
52787;DHT22;38661;53.152;5.846;2024-01-15T04:52:06;2.30;91.10
52787;DHT22;38661;53.152;5.846;2024-01-15T04:54:31;2.20;91.20
52787;DHT22;38661;53.152;5.846;2024-01-15T04:56:57;2.30;91.60
52787;DHT22;38661;53.152;5.846;2024-01-15T04:59:23;2.30;91.50
52787;DHT22;38661;53.152;5.846;2024-01-15T05:01:49;2.30;91.60
52787;DHT22;38661;53.152;5.846;2024-01-15T05:04:15;2.20;91.70
52787;DHT22;38661;53.152;5.846;2024-01-15T05:06:40;2.20;91.70
52787;DHT22;38661;53.152;5.846;2024-01-15T05:09:06;2.20;91.80
52787;DHT22;38661;53.152;5.846;2024-01-15T05:11:32;2.10;91.90
52787;DHT22;38661;53.152;5.846;2024-01-15T05:13:58;2.10;92.00
52787;DHT22;38661;53.152;5.846;2024-01-15T05:16:24;2.10;92.10
52787;DHT22;38661;53.152;5.846;2024-01-15T05:18:49;2.00;92.10
52787;DHT22;38661;53.152;5.846;2024-01-15T05:21:15;2.00;92.30
52787;DHT22;38661;53.152;5.846;2024-01-15T05:23:41;2.00;92.40
52787;DHT22;38661;53.152;5.846;2024-01-15T05:26:07;2.00;92.60
52787;DHT22;38661;53.152;5.846;2024-01-15T05:28:34;2.00;92.50
52787;DHT22;38661;53.152;5.846;2024-01-15T05:31:00;2.00;92.80
52787;DHT22;38661;53.152;5.846;2024-01-15T05:33:26;2.10;92.60
52787;DHT22;38661;53.152;5.846;2024-01-15T05:35:52;2.10;92.70
52787;DHT22;38661;53.152;5.846;2024-01-15T05:38:19;2.10;92.60
52787;DHT22;38661;53.152;5.846;2024-01-15T05:40:45;2.10;92.60
52787;DHT22;38661;53.152;5.846;2024-01-15T05:43:10;2.10;92.50
52787;DHT22;38661;53.152;5.846;2024-01-15T05:45:38;2.10;92.40
52787;DHT22;38661;53.152;5.846;2024-01-15T05:48:04;2.20;92.40
52787;DHT22;38661;53.152;5.846;2024-01-15T05:50:30;2.10;92.20
52787;DHT22;38661;53.152;5.846;2024-01-15T05:52:55;2.20;92.30
52787;DHT22;38661;53.152;5.846;2024-01-15T05:55:21;2.10;92.20
52787;DHT22;38661;53.152;5.846;2024-01-15T05:57:47;2.20;92.10
52787;DHT22;38661;53.152;5.846;2024-01-15T06:00:13;2.20;92.00
52787;DHT22;38661;53.152;5.846;2024-01-15T06:02:39;2.30;91.40
52787;DHT22;38661;53.152;5.846;2024-01-15T06:05:05;2.40;91.20
52787;DHT22;38661;53.152;5.846;2024-01-15T06:07:33;2.50;90.80
52787;DHT22;38661;53.152;5.846;2024-01-15T06:09:59;2.60;90.00
52787;DHT22;38661;53.152;5.846;2024-01-15T06:12:24;2.70;89.90
52787;DHT22;38661;53.152;5.846;2024-01-15T06:14:50;2.70;89.60
52787;DHT22;38661;53.152;5.846;2024-01-15T06:17:16;2.70;89.40
52787;DHT22;38661;53.152;5.846;2024-01-15T06:19:41;2.70;88.90
52787;DHT22;38661;53.152;5.846;2024-01-15T06:22:07;2.70;88.00
52787;DHT22;38661;53.152;5.846;2024-01-15T06:24:33;2.60;88.10
52787;DHT22;38661;53.152;5.846;2024-01-15T06:26:59;2.50;88.20
52787;DHT22;38661;53.152;5.846;2024-01-15T06:29:26;2.40;88.30
52787;DHT22;38661;53.152;5.846;2024-01-15T06:31:53;2.20;88.70
52787;DHT22;38661;53.152;5.846;2024-01-15T06:34:18;2.20;88.60
52787;DHT22;38661;53.152;5.846;2024-01-15T06:36:44;2.10;88.90
52787;DHT22;38661;53.152;5.846;2024-01-15T06:39:10;2.10;89.10
52787;DHT22;38661;53.152;5.846;2024-01-15T06:41:36;2.00;89.10
52787;DHT22;38661;53.152;5.846;2024-01-15T06:44:12;2.00;89.30
52787;DHT22;38661;53.152;5.846;2024-01-15T06:46:45;1.90;89.20
52787;DHT22;38661;53.152;5.846;2024-01-15T06:49:12;1.80;89.40
52787;DHT22;38661;53.152;5.846;2024-01-15T06:51:37;1.80;89.60
52787;DHT22;38661;53.152;5.846;2024-01-15T06:54:03;1.80;89.60
52787;DHT22;38661;53.152;5.846;2024-01-15T06:56:29;1.80;89.80
52787;DHT22;38661;53.152;5.846;2024-01-15T06:58:55;1.90;89.90
52787;DHT22;38661;53.152;5.846;2024-01-15T07:01:21;1.80;89.80
52787;DHT22;38661;53.152;5.846;2024-01-15T07:03:47;1.80;89.90
52787;DHT22;38661;53.152;5.846;2024-01-15T07:06:12;1.90;90.00
52787;DHT22;38661;53.152;5.846;2024-01-15T07:08:39;1.90;90.10
52787;DHT22;38661;53.152;5.846;2024-01-15T07:11:05;2.10;90.00
52787;DHT22;38661;53.152;5.846;2024-01-15T07:13:31;2.10;89.70
52787;DHT22;38661;53.152;5.846;2024-01-15T07:15:57;2.30;89.50
52787;DHT22;38661;53.152;5.846;2024-01-15T07:18:23;2.20;89.50
52787;DHT22;38661;53.152;5.846;2024-01-15T07:20:49;2.30;89.50
52787;DHT22;38661;53.152;5.846;2024-01-15T07:23:15;2.30;89.20
52787;DHT22;38661;53.152;5.846;2024-01-15T07:25:40;2.40;88.80
52787;DHT22;38661;53.152;5.846;2024-01-15T07:28:06;2.50;88.60
52787;DHT22;38661;53.152;5.846;2024-01-15T07:30:32;2.60;88.40
52787;DHT22;38661;53.152;5.846;2024-01-15T07:32:58;2.60;88.30
52787;DHT22;38661;53.152;5.846;2024-01-15T07:35:24;2.60;88.60
52787;DHT22;38661;53.152;5.846;2024-01-15T07:37:49;2.60;88.70
52787;DHT22;38661;53.152;5.846;2024-01-15T07:40:15;2.60;88.70
52787;DHT22;38661;53.152;5.846;2024-01-15T07:42:41;2.60;89.00
52787;DHT22;38661;53.152;5.846;2024-01-15T07:45:08;2.60;89.00
52787;DHT22;38661;53.152;5.846;2024-01-15T07:47:34;2.50;88.90
52787;DHT22;38661;53.152;5.846;2024-01-15T07:50:00;2.40;89.10
52787;DHT22;38661;53.152;5.846;2024-01-15T07:52:26;2.30;88.70
52787;DHT22;38661;53.152;5.846;2024-01-15T07:54:51;2.30;88.80
52787;DHT22;38661;53.152;5.846;2024-01-15T07:57:17;2.20;88.80
52787;DHT22;38661;53.152;5.846;2024-01-15T07:59:43;2.10;88.70
52787;DHT22;38661;53.152;5.846;2024-01-15T08:02:09;2.10;89.10
52787;DHT22;38661;53.152;5.846;2024-01-15T08:04:37;2.00;89.20
52787;DHT22;38661;53.152;5.846;2024-01-15T08:07:04;1.90;89.30
52787;DHT22;38661;53.152;5.846;2024-01-15T08:09:31;1.90;89.60
52787;DHT22;38661;53.152;5.846;2024-01-15T08:11:57;1.90;89.60
52787;DHT22;38661;53.152;5.846;2024-01-15T08:14:22;1.80;89.90
52787;DHT22;38661;53.152;5.846;2024-01-15T08:16:48;1.70;90.00
52787;DHT22;38661;53.152;5.846;2024-01-15T08:19:16;1.70;90.40
52787;DHT22;38661;53.152;5.846;2024-01-15T08:21:42;1.70;90.50
52787;DHT22;38661;53.152;5.846;2024-01-15T08:24:11;1.80;90.70
52787;DHT22;38661;53.152;5.846;2024-01-15T08:26:37;1.90;90.90
52787;DHT22;38661;53.152;5.846;2024-01-15T08:29:03;1.90;90.90
52787;DHT22;38661;53.152;5.846;2024-01-15T08:31:28;1.90;91.10
52787;DHT22;38661;53.152;5.846;2024-01-15T08:33:54;1.90;91.10
52787;DHT22;38661;53.152;5.846;2024-01-15T08:36:21;1.90;91.10
52787;DHT22;38661;53.152;5.846;2024-01-15T08:38:47;1.90;91.40
52787;DHT22;38661;53.152;5.846;2024-01-15T08:41:13;1.90;91.40
52787;DHT22;38661;53.152;5.846;2024-01-15T08:43:39;2.00;91.50
52787;DHT22;38661;53.152;5.846;2024-01-15T08:46:05;2.00;91.40
52787;DHT22;38661;53.152;5.846;2024-01-15T08:48:31;2.10;91.10
52787;DHT22;38661;53.152;5.846;2024-01-15T08:50:56;2.10;90.90
52787;DHT22;38661;53.152;5.846;2024-01-15T08:53:22;2.30;90.50
52787;DHT22;38661;53.152;5.846;2024-01-15T08:55:48;2.30;90.10
52787;DHT22;38661;53.152;5.846;2024-01-15T08:58:15;2.50;89.60
52787;DHT22;38661;53.152;5.846;2024-01-15T09:00:40;2.60;89.30
52787;DHT22;38661;53.152;5.846;2024-01-15T09:03:06;2.60;88.90
52787;DHT22;38661;53.152;5.846;2024-01-15T09:05:33;2.60;89.10
52787;DHT22;38661;53.152;5.846;2024-01-15T09:07:59;2.70;88.90
52787;DHT22;38661;53.152;5.846;2024-01-15T09:10:25;2.80;88.70
52787;DHT22;38661;53.152;5.846;2024-01-15T09:12:51;2.80;88.80
52787;DHT22;38661;53.152;5.846;2024-01-15T09:15:17;2.90;88.60
52787;DHT22;38661;53.152;5.846;2024-01-15T09:17:42;2.90;88.60
52787;DHT22;38661;53.152;5.846;2024-01-15T09:20:09;2.90;88.50
52787;DHT22;38661;53.152;5.846;2024-01-15T09:22:37;2.90;88.60
52787;DHT22;38661;53.152;5.846;2024-01-15T09:25:04;3.00;88.40
52787;DHT22;38661;53.152;5.846;2024-01-15T09:27:30;3.00;88.30
52787;DHT22;38661;53.152;5.846;2024-01-15T09:29:56;3.00;87.90
52787;DHT22;38661;53.152;5.846;2024-01-15T09:32:22;3.00;87.60
52787;DHT22;38661;53.152;5.846;2024-01-15T09:34:48;3.10;87.50
52787;DHT22;38661;53.152;5.846;2024-01-15T09:37:14;3.10;87.40
52787;DHT22;38661;53.152;5.846;2024-01-15T09:39:40;3.00;87.60
52787;DHT22;38661;53.152;5.846;2024-01-15T09:42:06;3.10;87.60
52787;DHT22;38661;53.152;5.846;2024-01-15T09:44:37;3.00;88.00
52787;DHT22;38661;53.152;5.846;2024-01-15T09:47:04;3.10;88.20
52787;DHT22;38661;53.152;5.846;2024-01-15T09:49:31;3.00;88.40
52787;DHT22;38661;53.152;5.846;2024-01-15T09:51:58;3.00;88.80
52787;DHT22;38661;53.152;5.846;2024-01-15T09:54:23;3.00;89.20
52787;DHT22;38661;53.152;5.846;2024-01-15T09:56:49;2.90;89.40
52787;DHT22;38661;53.152;5.846;2024-01-15T09:59:16;2.90;89.70
52787;DHT22;38661;53.152;5.846;2024-01-15T10:01:44;2.90;90.00
52787;DHT22;38661;53.152;5.846;2024-01-15T10:04:11;2.90;90.30
52787;DHT22;38661;53.152;5.846;2024-01-15T10:06:39;2.90;90.50
52787;DHT22;38661;53.152;5.846;2024-01-15T10:09:05;2.90;90.70
52787;DHT22;38661;53.152;5.846;2024-01-15T10:11:33;3.00;90.70
52787;DHT22;38661;53.152;5.846;2024-01-15T10:13:59;3.10;90.40
52787;DHT22;38661;53.152;5.846;2024-01-15T10:16:25;3.00;90.20
52787;DHT22;38661;53.152;5.846;2024-01-15T10:18:51;2.90;90.50
52787;DHT22;38661;53.152;5.846;2024-01-15T10:21:17;2.80;90.60
52787;DHT22;38661;53.152;5.846;2024-01-15T10:23:43;2.60;90.50
52787;DHT22;38661;53.152;5.846;2024-01-15T10:26:09;2.40;90.60
52787;DHT22;38661;53.152;5.846;2024-01-15T10:28:37;2.30;90.80
52787;DHT22;38661;53.152;5.846;2024-01-15T10:31:03;2.30;91.00
52787;DHT22;38661;53.152;5.846;2024-01-15T10:33:30;2.30;91.10
52787;DHT22;38661;53.152;5.846;2024-01-15T10:36:00;2.30;91.20
52787;DHT22;38661;53.152;5.846;2024-01-15T10:38:26;2.30;91.30
52787;DHT22;38661;53.152;5.846;2024-01-15T10:40:56;2.40;91.50
52787;DHT22;38661;53.152;5.846;2024-01-15T10:43:22;2.50;91.40
52787;DHT22;38661;53.152;5.846;2024-01-15T10:45:49;2.60;91.30
52787;DHT22;38661;53.152;5.846;2024-01-15T10:48:19;2.60;91.20
52787;DHT22;38661;53.152;5.846;2024-01-15T10:50:46;2.70;91.30
52787;DHT22;38661;53.152;5.846;2024-01-15T10:53:16;2.70;91.30
52787;DHT22;38661;53.152;5.846;2024-01-15T10:55:42;2.80;91.20
52787;DHT22;38661;53.152;5.846;2024-01-15T10:58:09;2.80;90.90
52787;DHT22;38661;53.152;5.846;2024-01-15T11:00:35;2.90;90.30
52787;DHT22;38661;53.152;5.846;2024-01-15T11:03:04;3.00;89.90
52787;DHT22;38661;53.152;5.846;2024-01-15T11:05:57;3.10;88.80
52787;DHT22;38661;53.152;5.846;2024-01-15T11:08:24;3.10;88.20
52787;DHT22;38661;53.152;5.846;2024-01-15T11:10:51;3.10;88.30
52787;DHT22;38661;53.152;5.846;2024-01-15T11:16:09;3.10;88.30
52787;DHT22;38661;53.152;5.846;2024-01-15T11:18:43;3.20;87.80
52787;DHT22;38661;53.152;5.846;2024-01-15T11:21:27;3.20;87.60
52787;DHT22;38661;53.152;5.846;2024-01-15T11:23:57;3.20;87.70
52787;DHT22;38661;53.152;5.846;2024-01-15T11:28:58;3.00;88.20
52787;DHT22;38661;53.152;5.846;2024-01-15T11:32:10;2.80;88.50
52787;DHT22;38661;53.152;5.846;2024-01-15T11:34:17;2.60;88.80
52787;DHT22;38661;53.152;5.846;2024-01-15T11:37:03;2.40;89.50
52787;DHT22;38661;53.152;5.846;2024-01-15T11:42:00;2.10;90.20
52787;DHT22;38661;53.152;5.846;2024-01-15T11:44:27;2.00;90.50
52787;DHT22;38661;53.152;5.846;2024-01-15T11:47:06;1.90;90.90
52787;DHT22;38661;53.152;5.846;2024-01-15T11:52:02;2.00;91.50
52787;DHT22;38661;53.152;5.846;2024-01-15T11:54:33;1.90;91.50
52787;DHT22;38661;53.152;5.846;2024-01-15T11:57:06;1.90;91.70
52787;DHT22;38661;53.152;5.846;2024-01-15T11:59:34;1.90;91.90
52787;DHT22;38661;53.152;5.846;2024-01-15T12:02:00;2.00;92.00
52787;DHT22;38661;53.152;5.846;2024-01-15T12:04:27;2.00;92.10
52787;DHT22;38661;53.152;5.846;2024-01-15T12:06:53;2.10;92.20
52787;DHT22;38661;53.152;5.846;2024-01-15T12:09:21;2.30;92.30
52787;DHT22;38661;53.152;5.846;2024-01-15T12:11:54;2.50;92.30
52787;DHT22;38661;53.152;5.846;2024-01-15T12:14:21;2.70;92.30
52787;DHT22;38661;53.152;5.846;2024-01-15T12:16:47;2.80;92.30
52787;DHT22;38661;53.152;5.846;2024-01-15T12:19:15;2.90;92.20
52787;DHT22;38661;53.152;5.846;2024-01-15T12:21:40;2.90;92.00
52787;DHT22;38661;53.152;5.846;2024-01-15T12:24:09;3.10;92.00
52787;DHT22;38661;53.152;5.846;2024-01-15T12:26:35;3.30;91.80
52787;DHT22;38661;53.152;5.846;2024-01-15T12:29:02;3.60;91.50
52787;DHT22;38661;53.152;5.846;2024-01-15T12:31:29;3.80;91.30
52787;DHT22;38661;53.152;5.846;2024-01-15T12:33:56;3.70;90.90
52787;DHT22;38661;53.152;5.846;2024-01-15T12:36:22;3.60;90.50
52787;DHT22;38661;53.152;5.846;2024-01-15T12:38:47;3.70;90.30
52787;DHT22;38661;53.152;5.846;2024-01-15T12:41:13;3.60;90.10
52787;DHT22;38661;53.152;5.846;2024-01-15T12:43:39;3.60;89.90
52787;DHT22;38661;53.152;5.846;2024-01-15T12:46:06;3.60;89.70
52787;DHT22;38661;53.152;5.846;2024-01-15T12:48:31;3.50;89.50
52787;DHT22;38661;53.152;5.846;2024-01-15T12:50:57;3.40;89.50
52787;DHT22;38661;53.152;5.846;2024-01-15T12:53:23;3.50;89.40
52787;DHT22;38661;53.152;5.846;2024-01-15T12:55:48;3.40;89.00
52787;DHT22;38661;53.152;5.846;2024-01-15T12:58:14;3.40;88.20
52787;DHT22;38661;53.152;5.846;2024-01-15T13:00:40;3.30;86.80
52787;DHT22;38661;53.152;5.846;2024-01-15T13:03:06;3.30;86.50
52787;DHT22;38661;53.152;5.846;2024-01-15T13:05:32;3.30;86.00
52787;DHT22;38661;53.152;5.846;2024-01-15T13:08:01;3.50;85.40
52787;DHT22;38661;53.152;5.846;2024-01-15T13:10:29;3.80;84.40
52787;DHT22;38661;53.152;5.846;2024-01-15T13:12:55;4.10;83.10
52787;DHT22;38661;53.152;5.846;2024-01-15T13:15:21;4.30;82.50
52787;DHT22;38661;53.152;5.846;2024-01-15T13:17:47;4.40;81.80
52787;DHT22;38661;53.152;5.846;2024-01-15T13:20:12;4.30;81.20
52787;DHT22;38661;53.152;5.846;2024-01-15T13:22:38;4.20;80.70
52787;DHT22;38661;53.152;5.846;2024-01-15T13:25:06;4.10;80.90
52787;DHT22;38661;53.152;5.846;2024-01-15T13:27:33;4.10;81.50
52787;DHT22;38661;53.152;5.846;2024-01-15T13:30:00;4.00;81.90
52787;DHT22;38661;53.152;5.846;2024-01-15T13:32:28;3.90;82.60
52787;DHT22;38661;53.152;5.846;2024-01-15T13:34:57;3.90;83.30
52787;DHT22;38661;53.152;5.846;2024-01-15T13:37:23;3.80;84.00
52787;DHT22;38661;53.152;5.846;2024-01-15T13:39:51;3.80;84.20
52787;DHT22;38661;53.152;5.846;2024-01-15T13:42:18;3.80;83.90
52787;DHT22;38661;53.152;5.846;2024-01-15T13:44:43;3.70;80.50
52787;DHT22;38661;53.152;5.846;2024-01-15T13:47:09;3.60;78.10
52787;DHT22;38661;53.152;5.846;2024-01-15T13:49:36;3.40;77.10
52787;DHT22;38661;53.152;5.846;2024-01-15T13:52:03;3.40;77.70
52787;DHT22;38661;53.152;5.846;2024-01-15T13:54:29;3.50;78.60
52787;DHT22;38661;53.152;5.846;2024-01-15T13:56:56;3.60;79.60
52787;DHT22;38661;53.152;5.846;2024-01-15T13:59:22;3.80;80.50
52787;DHT22;38661;53.152;5.846;2024-01-15T14:01:48;4.10;81.40
52787;DHT22;38661;53.152;5.846;2024-01-15T14:04:14;4.20;82.20
52787;DHT22;38661;53.152;5.846;2024-01-15T14:06:39;4.40;83.10
52787;DHT22;38661;53.152;5.846;2024-01-15T14:09:05;4.40;83.20
52787;DHT22;38661;53.152;5.846;2024-01-15T14:11:31;4.50;83.40
52787;DHT22;38661;53.152;5.846;2024-01-15T14:13:57;4.50;83.50
52787;DHT22;38661;53.152;5.846;2024-01-15T14:16:22;4.40;83.50
52787;DHT22;38661;53.152;5.846;2024-01-15T14:18:48;4.20;83.80
52787;DHT22;38661;53.152;5.846;2024-01-15T14:21:14;4.10;84.20
52787;DHT22;38661;53.152;5.846;2024-01-15T14:23:40;3.90;84.90
52787;DHT22;38661;53.152;5.846;2024-01-15T14:26:06;3.70;85.20
52787;DHT22;38661;53.152;5.846;2024-01-15T14:28:31;3.60;85.50
52787;DHT22;38661;53.152;5.846;2024-01-15T14:30:57;3.50;85.90
52787;DHT22;38661;53.152;5.846;2024-01-15T14:33:26;3.20;87.00
52787;DHT22;38661;53.152;5.846;2024-01-15T14:35:52;2.90;88.00
52787;DHT22;38661;53.152;5.846;2024-01-15T14:38:18;2.60;88.70
52787;DHT22;38661;53.152;5.846;2024-01-15T14:40:44;2.50;89.30
52787;DHT22;38661;53.152;5.846;2024-01-15T14:43:10;2.40;90.00
52787;DHT22;38661;53.152;5.846;2024-01-15T14:45:36;2.30;90.20
52787;DHT22;38661;53.152;5.846;2024-01-15T14:48:02;2.30;90.40
52787;DHT22;38661;53.152;5.846;2024-01-15T14:50:28;2.30;90.60
52787;DHT22;38661;53.152;5.846;2024-01-15T14:52:53;2.20;90.70
52787;DHT22;38661;53.152;5.846;2024-01-15T14:55:19;2.20;91.00
52787;DHT22;38661;53.152;5.846;2024-01-15T14:57:45;2.20;91.10
52787;DHT22;38661;53.152;5.846;2024-01-15T15:00:11;2.10;91.30
52787;DHT22;38661;53.152;5.846;2024-01-15T15:02:38;2.20;91.50
52787;DHT22;38661;53.152;5.846;2024-01-15T15:05:04;2.30;91.70
52787;DHT22;38661;53.152;5.846;2024-01-15T15:07:30;2.30;91.90
52787;DHT22;38661;53.152;5.846;2024-01-15T15:09:56;2.30;92.10
52787;DHT22;38661;53.152;5.846;2024-01-15T15:12:22;2.30;92.20
52787;DHT22;38661;53.152;5.846;2024-01-15T15:14:48;2.30;92.50
52787;DHT22;38661;53.152;5.846;2024-01-15T15:17:13;2.30;92.50
52787;DHT22;38661;53.152;5.846;2024-01-15T15:19:39;2.40;92.50
52787;DHT22;38661;53.152;5.846;2024-01-15T15:22:06;2.40;92.60
52787;DHT22;38661;53.152;5.846;2024-01-15T15:24:37;2.50;92.60
52787;DHT22;38661;53.152;5.846;2024-01-15T15:27:04;2.50;92.50
52787;DHT22;38661;53.152;5.846;2024-01-15T15:29:31;2.50;92.20
52787;DHT22;38661;53.152;5.846;2024-01-15T15:31:57;2.40;92.10
52787;DHT22;38661;53.152;5.846;2024-01-15T15:34:22;2.50;91.90
52787;DHT22;38661;53.152;5.846;2024-01-15T15:36:48;2.50;91.70
52787;DHT22;38661;53.152;5.846;2024-01-15T15:39:14;2.50;91.70
52787;DHT22;38661;53.152;5.846;2024-01-15T15:41:42;2.40;91.70
52787;DHT22;38661;53.152;5.846;2024-01-15T15:44:07;2.30;91.60
52787;DHT22;38661;53.152;5.846;2024-01-15T15:46:35;2.20;91.80
52787;DHT22;38661;53.152;5.846;2024-01-15T15:49:01;2.10;92.00
52787;DHT22;38661;53.152;5.846;2024-01-15T15:51:32;2.10;92.10